createdAt,value
2019-02-08T00:01:45.118Z,18.07
2019-02-08T00:04:17.326Z,20.63
2019-02-08T00:06:47.135Z,16.07
2019-02-08T00:09:16.293Z,22.30
2019-02-08T00:11:46.758Z,20.77
2019-02-08T00:14:15.817Z,23.73
2019-02-08T00:16:44.785Z,18.87
2019-02-08T00:19:13.739Z,21.20
2019-02-08T00:21:42.774Z,19.73
2019-02-08T00:24:11.778Z,18.07
2019-02-08T00:26:40.749Z,23.93
2019-02-08T00:29:09.937Z,18.50
2019-02-08T00:31:38.854Z,21.53
2019-02-08T00:34:07.871Z,21.30
2019-02-08T00:36:36.847Z,18.07
2019-02-08T00:39:10.705Z,14.87
2019-02-08T00:45:17.086Z,17.43
2019-02-08T00:47:47.702Z,27.37
2019-02-08T00:50:18.619Z,18.97
2019-02-08T00:52:48.559Z,12.97
2019-02-08T00:55:17.931Z,18.20
2019-02-08T00:57:46.925Z,18.50
2019-02-08T01:00:17.364Z,14.87
2019-02-08T01:02:46.874Z,15.70
2019-02-08T01:05:57.550Z,15.33
2019-02-08T01:08:26.775Z,11.10
2019-02-08T01:10:55.773Z,14.97
2019-02-08T01:13:25.176Z,17.60
2019-02-08T01:15:54.142Z,16.90
2019-02-08T01:18:23.728Z,14.40
2019-02-08T01:20:52.674Z,12.20
2019-02-08T01:23:22.804Z,13.83
2019-02-08T01:25:52.175Z,10.90
2019-02-08T01:28:21.382Z,22.37
2019-02-08T01:30:50.329Z,22.10
2019-02-08T01:33:19.223Z,18.23
2019-02-08T01:35:48.198Z,10.20
2019-02-08T01:38:20.580Z,14.20
2019-02-08T01:40:49.956Z,14.77
2019-02-08T01:43:46.283Z,19.60
2019-02-08T01:46:15.289Z,15.53
2019-02-08T01:48:44.514Z,14.57
2019-02-08T01:51:13.523Z,15.77
2019-02-08T01:53:48.595Z,25.27
2019-02-08T01:56:13.720Z,11.30
2019-02-08T01:58:42.754Z,13.37
2019-02-08T02:01:11.970Z,14.70
2019-02-08T02:03:41.265Z,17.20
2019-02-08T02:06:43.648Z,13.07
2019-02-08T02:09:12.637Z,11.67
2019-02-08T02:11:41.649Z,15.97
2019-02-08T02:14:11.228Z,14.33
2019-02-08T02:16:41.420Z,22.33
2019-02-08T02:19:11.047Z,15.97
2019-02-08T02:24:15.188Z,15.43
2019-02-08T02:26:44.018Z,13.20
2019-02-08T02:29:13.029Z,16.77
2019-02-08T02:31:41.950Z,9.63
2019-02-08T02:34:10.865Z,18.57
2019-02-08T02:36:39.770Z,13.40
2019-02-08T02:39:09.891Z,12.50
2019-02-08T02:41:38.788Z,15.33
2019-02-08T02:44:09.346Z,16.80
2019-02-08T02:46:38.545Z,13.17
2019-02-08T02:49:07.939Z,11.30
2019-02-08T02:51:36.859Z,15.43
2019-02-08T02:54:06.321Z,15.67
2019-02-08T02:56:35.249Z,16.83
2019-02-08T02:59:04.469Z,13.07
2019-02-08T03:05:15.027Z,17.17
2019-02-08T03:07:44.009Z,14.70
2019-02-08T03:10:14.512Z,15.10
2019-02-08T03:12:43.477Z,18.83
2019-02-08T03:15:13.681Z,15.20
2019-02-08T03:17:42.650Z,14.83
2019-02-08T03:20:14.793Z,14.77
2019-02-08T03:22:43.788Z,16.83
2019-02-08T03:25:21.795Z,14.90
2019-02-08T03:27:51.220Z,16.87
2019-02-08T03:30:25.500Z,15.17
2019-02-08T03:32:54.483Z,17.57
2019-02-08T03:35:24.778Z,16.30
2019-02-08T03:37:53.975Z,17.57
2019-02-08T03:40:25.220Z,18.40
2019-02-08T03:42:55.019Z,20.57
2019-02-08T03:45:26.332Z,21.23
2019-02-08T03:47:58.362Z,20.83
2019-02-08T03:50:27.669Z,21.07
2019-02-08T03:52:56.662Z,24.23
2019-02-08T03:55:25.635Z,17.10
2019-02-08T03:57:54.527Z,18.73
2019-02-08T04:00:34.547Z,19.97
2019-02-08T04:03:05.109Z,19.90
2019-02-08T04:05:36.335Z,24.73
2019-02-08T04:08:05.497Z,20.17
2019-02-08T04:10:34.402Z,23.23
2019-02-08T04:13:04.585Z,23.70
2019-02-08T04:15:33.586Z,22.17
2019-02-08T04:18:09.783Z,18.00
2019-02-08T04:20:38.714Z,24.73
2019-02-08T04:23:07.981Z,21.73
2019-02-08T04:25:37.777Z,24.10
2019-02-08T04:28:06.675Z,22.90
2019-02-08T04:30:38.827Z,25.00
2019-02-08T04:33:08.173Z,20.43
2019-02-08T04:35:38.712Z,21.80
2019-02-08T04:38:07.662Z,25.57
2019-02-08T04:40:40.150Z,28.33
2019-02-08T04:43:09.337Z,23.63
2019-02-08T04:45:38.277Z,25.70
2019-02-08T04:48:07.457Z,24.63
2019-02-08T04:50:36.774Z,23.87
2019-02-08T04:53:05.700Z,24.30
2019-02-08T04:55:35.020Z,26.00
2019-02-08T04:58:04.341Z,22.07
2019-02-08T05:00:34.966Z,23.87
2019-02-08T05:03:04.683Z,23.47
2019-02-08T05:05:34.312Z,17.13
2019-02-08T05:08:03.620Z,20.23
2019-02-08T05:10:33.162Z,18.00
2019-02-08T05:13:02.147Z,18.27
2019-02-08T05:15:31.131Z,20.80
2019-02-08T05:18:00.381Z,21.73
2019-02-08T05:20:29.760Z,21.40
2019-02-08T05:22:58.984Z,18.33
2019-02-08T05:25:28.328Z,16.33
2019-02-08T05:31:50.341Z,23.50
2019-02-08T05:34:22.425Z,22.40
2019-02-08T05:36:51.439Z,21.23
2019-02-08T05:39:20.627Z,16.10
2019-02-08T05:41:49.604Z,18.03
2019-02-08T05:44:18.640Z,19.87
2019-02-08T05:46:48.226Z,15.83
2019-02-08T05:49:17.125Z,15.13
2019-02-08T05:51:48.039Z,18.73
2019-02-08T05:54:18.658Z,19.50
2019-02-08T05:56:48.365Z,20.80
2019-02-08T05:59:17.600Z,20.87
2019-02-08T06:01:46.547Z,17.43
2019-02-08T06:04:15.954Z,14.93
2019-02-08T06:06:44.874Z,19.93
2019-02-08T06:09:15.519Z,18.07
2019-02-08T06:11:44.520Z,20.60
2019-02-08T06:14:14.643Z,17.10
2019-02-08T06:16:43.702Z,17.27
2019-02-08T06:19:13.008Z,21.30
2019-02-08T06:21:43.414Z,17.80
2019-02-08T06:24:12.331Z,18.67
2019-02-08T06:26:41.543Z,17.77
2019-02-08T06:29:10.539Z,17.50
2019-02-08T06:31:42.643Z,20.47
2019-02-08T06:34:13.931Z,21.80
2019-02-08T06:36:43.128Z,19.60
2019-02-08T06:39:12.407Z,16.67
2019-02-08T06:41:41.417Z,18.63
2019-02-08T06:44:11.203Z,13.90
2019-02-08T06:46:40.957Z,14.97
2019-02-08T06:49:13.305Z,16.77
2019-02-08T06:51:42.625Z,17.20
2019-02-08T06:54:19.615Z,13.87
2019-02-08T06:57:13.992Z,16.63
2019-02-08T07:00:05.882Z,16.40
2019-02-08T07:02:47.272Z,16.33
2019-02-08T07:05:55.662Z,12.67
2019-02-08T07:08:46.393Z,14.67
2019-02-08T07:11:27.663Z,15.93
2019-02-08T07:14:24.627Z,15.50
2019-02-08T07:17:05.710Z,16.60
2019-02-08T07:19:54.063Z,12.50
2019-02-08T07:22:51.446Z,10.47
2019-02-08T07:25:36.664Z,13.67
2019-02-08T07:28:21.521Z,17.77
2019-02-08T07:31:18.874Z,14.03
2019-02-08T07:33:58.450Z,15.10
2019-02-08T07:36:58.953Z,15.87
2019-02-08T07:39:49.426Z,16.97
2019-02-08T07:42:43.590Z,16.07
2019-02-08T07:45:31.836Z,18.63
2019-02-08T07:48:19.986Z,18.53
2019-02-08T07:51:07.023Z,17.30
2019-02-08T07:53:46.057Z,20.97
2019-02-08T07:56:23.087Z,12.73
2019-02-08T07:59:17.313Z,15.90
2019-02-08T08:02:05.286Z,15.47
2019-02-08T08:05:02.390Z,16.93
2019-02-08T08:07:41.582Z,20.10
2019-02-08T08:10:17.540Z,19.83
2019-02-08T08:13:08.409Z,20.07
2019-02-08T08:15:52.943Z,18.03
2019-02-08T08:18:30.680Z,17.07
2019-02-08T08:21:29.352Z,17.23
2019-02-08T08:24:23.519Z,15.67
2019-02-08T08:27:09.412Z,12.37
2019-02-08T08:29:47.312Z,15.23
2019-02-08T08:32:23.880Z,18.10
2019-02-08T08:35:14.037Z,15.47
2019-02-08T08:38:14.175Z,13.00
2019-02-08T08:41:36.343Z,14.13
2019-02-08T08:44:58.631Z,15.20
2019-02-08T08:47:59.643Z,14.73
2019-02-08T08:51:23.074Z,10.63
2019-02-08T08:54:11.100Z,17.53
2019-02-08T08:57:01.679Z,12.10
2019-02-08T09:00:15.491Z,13.27
2019-02-08T09:03:06.396Z,11.90
2019-02-08T09:06:08.413Z,12.77
2019-02-08T09:09:12.504Z,11.03
2019-02-08T09:12:06.409Z,13.03
2019-02-08T09:15:08.305Z,10.20
2019-02-08T09:18:08.359Z,10.57
2019-02-08T09:21:13.657Z,12.43
2019-02-08T09:24:09.967Z,11.20
2019-02-08T09:27:13.307Z,13.67
2019-02-08T09:30:27.778Z,10.13
2019-02-08T09:33:33.512Z,9.30
2019-02-08T09:36:39.224Z,11.03
2019-02-08T09:40:16.517Z,9.23
2019-02-08T09:43:22.880Z,10.47
2019-02-08T09:49:46.776Z,11.03
2019-02-08T09:52:59.582Z,9.13
2019-02-08T09:56:12.585Z,11.53
2019-02-08T09:59:19.562Z,8.10
2019-02-08T10:02:25.954Z,8.77
2019-02-08T10:05:53.804Z,6.23
2019-02-08T10:09:08.730Z,9.23
2019-02-08T10:12:27.994Z,8.63
2019-02-08T10:15:37.336Z,8.53
2019-02-08T10:18:48.521Z,7.87
2019-02-08T10:22:01.573Z,7.00
2019-02-08T10:24:59.583Z,9.03
2019-02-08T10:27:54.274Z,8.60
2019-02-08T10:31:06.244Z,7.43
2019-02-08T10:34:30.757Z,12.00
2019-02-08T10:37:35.619Z,10.97
2019-02-08T10:40:43.664Z,8.20
2019-02-08T10:43:44.572Z,8.90
2019-02-08T10:46:53.686Z,9.33
2019-02-08T10:50:13.147Z,9.50
2019-02-08T10:53:18.115Z,10.80
2019-02-08T10:56:15.017Z,12.20
2019-02-08T10:59:28.909Z,9.83
2019-02-08T11:02:24.616Z,10.40
2019-02-08T11:05:29.706Z,9.97
2019-02-08T11:11:39.104Z,8.40
2019-02-08T11:15:04.308Z,10.50
2019-02-08T11:18:20.623Z,6.57
2019-02-08T11:20:50.006Z,11.07
2019-02-08T11:23:22.443Z,11.93
2019-02-08T11:25:51.469Z,7.77
2019-02-08T11:28:20.384Z,11.53
2019-02-08T11:30:49.371Z,9.97
2019-02-08T11:33:18.555Z,9.20
2019-02-08T11:35:47.482Z,12.90
2019-02-08T11:38:16.441Z,10.47
2019-02-08T11:40:50.474Z,11.13
2019-02-08T11:43:20.292Z,8.57
2019-02-08T11:45:49.811Z,9.30
2019-02-08T11:48:18.889Z,8.53
2019-02-08T11:50:48.773Z,8.97
2019-02-08T11:53:18.065Z,8.73
2019-02-08T11:55:47.128Z,10.20
2019-02-08T11:58:17.889Z,8.93
2019-02-08T12:00:50.740Z,9.27
2019-02-08T12:03:20.336Z,6.23
2019-02-08T12:05:51.381Z,8.00
2019-02-08T12:08:20.476Z,6.73
2019-02-08T12:10:49.414Z,8.90
2019-02-08T12:13:19.104Z,8.90
2019-02-08T12:15:48.339Z,8.10
2019-02-08T12:18:18.647Z,6.33
2019-02-08T12:20:47.663Z,7.77
2019-02-08T12:23:16.624Z,5.83
2019-02-08T12:25:46.427Z,4.73
2019-02-08T12:28:15.835Z,7.40
2019-02-08T12:30:44.996Z,7.93
2019-02-08T12:33:13.972Z,11.40
2019-02-08T12:35:43.013Z,6.47
2019-02-08T12:38:12.241Z,12.17
2019-02-08T12:40:41.589Z,9.10
2019-02-08T12:43:10.902Z,10.77
2019-02-08T12:45:39.990Z,9.27
2019-02-08T12:48:15.770Z,10.93
2019-02-08T12:51:14.650Z,10.23
2019-02-08T12:53:44.417Z,5.60
2019-02-08T12:56:16.795Z,8.77
2019-02-08T12:58:46.150Z,8.70
2019-02-08T13:01:15.737Z,7.03
2019-02-08T13:03:45.295Z,7.50
2019-02-08T13:06:14.623Z,10.17
2019-02-08T13:08:44.294Z,11.03
2019-02-08T13:11:13.204Z,5.80
2019-02-08T13:13:42.475Z,8.80
2019-02-08T13:16:14.511Z,6.47
2019-02-08T13:18:44.768Z,6.53
2019-02-08T13:21:44.190Z,8.77
2019-02-08T13:24:13.521Z,6.57
2019-02-08T13:26:43.345Z,7.33
2019-02-08T13:29:12.456Z,9.93
2019-02-08T13:31:41.431Z,9.20
2019-02-08T13:34:12.649Z,7.63
2019-02-08T13:36:42.205Z,6.70
2019-02-08T13:39:11.286Z,10.37
2019-02-08T13:41:43.385Z,11.60
2019-02-08T13:44:13.033Z,7.57
2019-02-08T13:46:42.369Z,10.40
2019-02-08T13:49:11.959Z,8.87
2019-02-08T13:51:41.481Z,6.70
2019-02-08T13:54:10.620Z,7.47
2019-02-08T13:56:39.667Z,7.73
2019-02-08T13:59:09.698Z,9.13
2019-02-08T14:01:44.101Z,6.87
2019-02-08T14:04:13.018Z,11.37
2019-02-08T14:06:41.974Z,6.40
2019-02-08T14:09:10.993Z,6.37
2019-02-08T14:11:40.023Z,9.00
2019-02-08T14:14:09.360Z,6.27
2019-02-08T14:16:39.179Z,7.87
2019-02-08T14:19:10.584Z,6.43
2019-02-08T14:22:09.812Z,9.20
2019-02-08T14:24:39.037Z,9.90
2019-02-08T14:27:08.948Z,7.23
2019-02-08T14:29:38.027Z,5.67
2019-02-08T14:32:10.824Z,6.63
2019-02-08T14:34:43.866Z,9.53
2019-02-08T14:37:13.397Z,5.87
2019-02-08T14:39:45.566Z,12.33
2019-02-08T14:42:15.231Z,9.07
2019-02-08T14:44:45.758Z,6.63
2019-02-08T14:47:15.420Z,7.20
2019-02-08T14:49:45.715Z,10.30
2019-02-08T14:52:18.454Z,7.80
2019-02-08T14:54:51.647Z,7.07
2019-02-08T14:57:20.566Z,3.93
2019-02-08T14:59:56.218Z,5.77
2019-02-08T15:02:25.606Z,11.13
2019-02-08T15:04:54.643Z,9.63
2019-02-08T15:07:23.698Z,6.10
2019-02-08T15:09:53.004Z,8.00
2019-02-08T15:12:22.415Z,6.93
2019-02-08T15:14:54.904Z,4.13
2019-02-08T15:17:26.076Z,8.30
2019-02-08T15:19:57.660Z,7.57
2019-02-08T15:22:26.752Z,5.17
2019-02-08T15:24:56.184Z,5.33
2019-02-08T15:27:28.336Z,6.17
2019-02-08T15:29:57.408Z,5.37
2019-02-08T15:32:26.590Z,7.67
2019-02-08T15:34:55.889Z,6.83
2019-02-08T15:37:24.888Z,8.17
2019-02-08T15:39:54.569Z,5.53
2019-02-08T15:42:23.489Z,6.73
2019-02-08T15:44:52.822Z,5.10
2019-02-08T15:47:21.916Z,8.73
2019-02-08T15:49:51.036Z,9.03
2019-02-08T15:52:21.049Z,5.67
2019-02-08T15:54:51.226Z,7.90
2019-02-08T15:57:20.574Z,6.53
2019-02-08T15:59:49.617Z,5.07
2019-02-08T16:02:19.426Z,6.03
2019-02-08T16:04:48.835Z,7.40
2019-02-08T16:07:17.879Z,8.70
2019-02-08T16:09:47.215Z,6.73
2019-02-08T16:12:16.277Z,7.53
2019-02-08T16:17:22.264Z,6.17
2019-02-08T16:19:51.413Z,9.80
2019-02-08T16:22:21.311Z,4.80
2019-02-08T16:24:50.286Z,8.27
2019-02-08T16:27:19.341Z,6.63
2019-02-08T16:29:48.369Z,5.80
2019-02-08T16:32:17.472Z,8.83
2019-02-08T16:34:46.712Z,8.40
2019-02-08T16:37:16.193Z,6.60
2019-02-08T16:39:48.472Z,3.00
2019-02-08T16:42:18.133Z,7.10
2019-02-08T16:44:47.842Z,6.70
2019-02-08T16:47:16.867Z,4.53
2019-02-08T16:49:52.364Z,6.03
2019-02-08T16:52:21.362Z,6.13
2019-02-08T16:54:50.518Z,6.67
2019-02-08T16:57:19.881Z,7.57
2019-02-08T16:59:49.070Z,5.07
2019-02-08T17:02:25.445Z,6.67
2019-02-08T17:04:54.856Z,5.63
2019-02-08T17:07:27.034Z,7.90
2019-02-08T17:09:56.022Z,8.20
2019-02-08T17:12:25.152Z,5.13
2019-02-08T17:14:55.805Z,5.30
2019-02-08T17:17:25.243Z,6.00
2019-02-08T17:19:54.356Z,4.03
2019-02-08T17:22:26.390Z,4.73
2019-02-08T17:24:55.542Z,5.10
2019-02-08T17:27:24.906Z,4.83
2019-02-08T17:29:54.113Z,5.93
2019-02-08T17:32:23.275Z,6.03
2019-02-08T17:34:53.159Z,4.30
2019-02-08T17:39:57.086Z,4.63
2019-02-08T17:42:26.617Z,7.50
2019-02-08T17:44:56.033Z,4.10
2019-02-08T17:47:26.223Z,6.50
2019-02-08T17:49:55.201Z,7.87
2019-02-08T17:52:24.395Z,7.20
2019-02-08T17:54:56.431Z,3.50
2019-02-08T17:57:25.592Z,4.57
2019-02-08T17:59:54.610Z,5.20
2019-02-08T18:02:23.756Z,7.73
2019-02-08T18:04:54.541Z,7.07
2019-02-08T18:07:23.504Z,6.07
2019-02-08T18:09:52.490Z,6.13
2019-02-08T18:12:21.515Z,4.77
2019-02-08T18:17:24.912Z,6.03
2019-02-08T18:19:53.968Z,6.30
2019-02-08T18:22:23.561Z,6.70
2019-02-08T18:24:52.614Z,5.97
2019-02-08T18:27:25.627Z,10.03
2019-02-08T18:29:54.733Z,6.53
2019-02-08T18:32:23.945Z,6.70
2019-02-08T18:34:53.613Z,6.47
2019-02-08T18:37:23.050Z,5.47
2019-02-08T18:39:54.556Z,6.83
2019-02-08T18:42:23.601Z,10.40
2019-02-08T18:44:52.653Z,5.87
2019-02-08T18:47:22.076Z,3.97
2019-02-08T18:49:52.693Z,7.00
2019-02-08T18:52:22.182Z,6.30
2019-02-08T18:54:51.394Z,7.43
2019-02-08T18:57:23.564Z,7.30
2019-02-08T18:59:52.906Z,4.13
2019-02-08T19:02:22.126Z,4.30
2019-02-08T19:04:51.470Z,5.43
2019-02-08T19:07:20.391Z,5.37
2019-02-08T19:09:51.436Z,6.73
2019-02-08T19:12:20.706Z,4.93
2019-02-08T19:14:49.667Z,5.23
2019-02-08T19:17:18.900Z,6.00
2019-02-08T19:19:47.936Z,5.00
2019-02-08T19:22:54.878Z,7.87
2019-02-08T19:28:08.961Z,7.00
2019-02-08T19:30:39.048Z,5.70
2019-02-08T19:33:08.422Z,5.27
2019-02-08T19:35:38.090Z,9.50
2019-02-08T19:38:07.591Z,6.50
2019-02-08T19:40:38.690Z,7.30
2019-02-08T19:43:08.071Z,6.33
2019-02-08T19:45:37.109Z,5.73
2019-02-08T19:48:07.887Z,7.30
2019-02-08T19:50:40.338Z,8.17
2019-02-08T19:53:10.907Z,7.40
2019-02-08T19:55:40.674Z,4.57
2019-02-08T19:58:15.639Z,5.47
2019-02-08T20:00:51.490Z,6.17
2019-02-08T20:03:23.853Z,5.33
2019-02-08T20:05:53.253Z,7.13
2019-02-08T20:08:24.157Z,5.80
2019-02-08T20:10:53.229Z,6.33
2019-02-08T20:13:23.762Z,6.57
2019-02-08T20:15:54.401Z,5.23
2019-02-08T20:18:24.215Z,5.90
2019-02-08T20:20:53.556Z,6.83
2019-02-08T20:23:22.940Z,7.00
2019-02-08T20:25:51.957Z,6.03
2019-02-08T20:28:21.021Z,7.10
2019-02-08T20:30:50.323Z,6.17
2019-02-08T20:33:19.401Z,8.63
2019-02-08T20:35:48.419Z,3.37
2019-02-08T20:38:21.507Z,5.17
2019-02-08T20:40:52.317Z,7.63
2019-02-08T20:45:57.634Z,6.07
2019-02-08T20:48:26.905Z,4.63
2019-02-08T20:50:57.622Z,5.77
2019-02-08T20:53:26.621Z,7.10
2019-02-08T20:55:55.699Z,4.67
2019-02-08T20:58:25.117Z,6.63
2019-02-08T21:00:54.387Z,7.23
2019-02-08T21:03:24.516Z,6.17
2019-02-08T21:05:53.567Z,7.63
2019-02-08T21:08:22.704Z,4.80
2019-02-08T21:10:51.927Z,7.23
2019-02-08T21:13:21.345Z,6.97
2019-02-08T21:15:50.268Z,7.07
2019-02-08T21:18:19.228Z,5.50
2019-02-08T21:20:48.789Z,5.20
2019-02-08T21:23:18.649Z,6.00
2019-02-08T21:25:51.770Z,6.00
2019-02-08T21:28:18.568Z,6.57
2019-02-08T21:30:47.617Z,8.97
2019-02-08T21:33:16.987Z,6.50
2019-02-08T21:35:46.130Z,5.53
2019-02-08T21:38:15.189Z,4.20
2019-02-08T21:40:44.179Z,4.23
2019-02-08T21:43:14.299Z,7.90
2019-02-08T21:45:45.359Z,7.63
2019-02-08T21:48:14.595Z,5.80
2019-02-08T21:50:43.588Z,6.70
2019-02-08T21:53:12.606Z,6.27
2019-02-08T21:55:41.775Z,5.53
2019-02-08T21:58:14.190Z,7.33
2019-02-08T22:00:44.410Z,5.28
2019-02-08T22:03:20.426Z,7.47
2019-02-08T22:05:56.409Z,5.93
2019-02-08T22:08:25.378Z,4.93
2019-02-08T22:10:54.432Z,6.83
2019-02-08T22:13:23.459Z,7.10
2019-02-08T22:15:52.489Z,7.27
2019-02-08T22:18:21.547Z,6.20
2019-02-08T22:20:51.801Z,5.03
2019-02-08T22:23:24.232Z,6.13
2019-02-08T22:25:53.600Z,6.07
2019-02-08T22:28:23.638Z,3.97
2019-02-08T22:30:53.302Z,6.90
2019-02-08T22:33:22.350Z,4.33
2019-02-08T22:35:51.349Z,5.53
2019-02-08T22:38:20.638Z,4.57
2019-02-08T22:40:50.897Z,5.60
2019-02-08T22:43:19.998Z,5.40
2019-02-08T22:45:49.317Z,5.27
2019-02-08T22:48:21.715Z,4.83
2019-02-08T22:50:50.817Z,3.83
2019-02-08T22:53:24.069Z,4.20
2019-02-08T22:55:53.307Z,3.63
2019-02-08T22:58:25.530Z,5.47
2019-02-08T23:01:38.759Z,3.37
2019-02-08T23:04:08.625Z,5.63
2019-02-08T23:06:44.559Z,7.30
2019-02-08T23:09:29.323Z,4.70
2019-02-08T23:12:00.349Z,6.33
2019-02-08T23:14:29.309Z,5.10
2019-02-08T23:16:58.448Z,4.07
2019-02-08T23:19:27.799Z,4.60
2019-02-08T23:22:00.955Z,9.40
2019-02-08T23:24:30.027Z,6.47
2019-02-08T23:26:58.963Z,6.80
2019-02-08T23:29:30.121Z,5.53
2019-02-08T23:31:58.922Z,5.47
2019-02-08T23:34:27.908Z,7.77
2019-02-08T23:37:26.107Z,7.10
2019-02-08T23:39:55.270Z,9.00
2019-02-08T23:42:24.676Z,6.67
2019-02-08T23:44:53.590Z,8.53
2019-02-08T23:47:22.664Z,5.80
2019-02-08T23:49:51.911Z,5.83
2019-02-08T23:52:33.114Z,6.13
2019-02-08T23:55:02.109Z,7.17
2019-02-08T23:57:31.495Z,5.63
